Colonial Heights, Tennessee
Current Conditions -  °F | °C
As of 11:48 PM on Saturday 20 Dec 2014 (Local Time) from KTRI Reporting Station
Haze Haze  
Wind Chill: 39°   Ceiling: 1600
Heat Index: 39°   Visibility: 5mi
Dew Point: 37°   Wind: 3mph
Humidity: 93%   Direction: 200°SSW
Pressure: 30.22"   Gusts: NA
Location:  36.4621°N, 82.5069°W
Report Text: KTRI 210448Z 20003KT 5SM BR SCT008 BKN016 OVC038 04/03 A3022 RMK AO2
Loading
Personal Weather Stations






























Interactive Weather Map New forecast layout! Learn more

10-Day Weather Forecast

Advertisements
Track Severe Weather on mobile